sensor_id;sensor_type;location;lat;lon;timestamp;temperature;humidity
29687;DHT22;16599;47.078;15.536;2024-03-22T00:00:15;8.40;99.90
29687;DHT22;16599;47.078;15.536;2024-03-22T00:02:41;8.40;99.90
29687;DHT22;16599;47.078;15.536;2024-03-22T00:05:07;8.20;99.90
29687;DHT22;16599;47.078;15.536;2024-03-22T00:07:33;8.10;99.90
29687;DHT22;16599;47.078;15.536;2024-03-22T00:09:59;7.80;99.90
29687;DHT22;16599;47.078;15.536;2024-03-22T00:12:25;7.70;99.90
29687;DHT22;16599;47.078;15.536;2024-03-22T00:14:50;7.60;99.90
29687;DHT22;16599;47.078;15.536;2024-03-22T00:17:20;7.80;99.90
29687;DHT22;16599;47.078;15.536;2024-03-22T00:19:46;7.90;99.90
29687;DHT22;16599;47.078;15.536;2024-03-22T00:22:11;7.60;99.90
29687;DHT22;16599;47.078;15.536;2024-03-22T00:24:37;7.40;99.90
29687;DHT22;16599;47.078;15.536;2024-03-22T00:27:03;7.50;99.90
29687;DHT22;16599;47.078;15.536;2024-03-22T00:29:29;7.70;99.90
29687;DHT22;16599;47.078;15.536;2024-03-22T00:31:55;7.90;99.90
29687;DHT22;16599;47.078;15.536;2024-03-22T00:34:20;8.00;99.90
29687;DHT22;16599;47.078;15.536;2024-03-22T00:36:46;7.90;99.90
29687;DHT22;16599;47.078;15.536;2024-03-22T00:39:12;7.70;99.90
29687;DHT22;16599;47.078;15.536;2024-03-22T00:41:38;7.70;99.90
29687;DHT22;16599;47.078;15.536;2024-03-22T00:44:04;7.80;99.90
29687;DHT22;16599;47.078;15.536;2024-03-22T00:46:30;7.90;99.90
29687;DHT22;16599;47.078;15.536;2024-03-22T00:48:56;7.90;99.90
29687;DHT22;16599;47.078;15.536;2024-03-22T00:51:25;8.00;99.90
29687;DHT22;16599;47.078;15.536;2024-03-22T00:53:51;8.10;99.90
29687;DHT22;16599;47.078;15.536;2024-03-22T00:56:16;8.00;99.90
29687;DHT22;16599;47.078;15.536;2024-03-22T00:58:42;8.00;99.90
29687;DHT22;16599;47.078;15.536;2024-03-22T01:01:08;8.00;99.90
29687;DHT22;16599;47.078;15.536;2024-03-22T01:03:34;7.80;99.90
29687;DHT22;16599;47.078;15.536;2024-03-22T01:05:59;7.80;99.90
29687;DHT22;16599;47.078;15.536;2024-03-22T01:08:25;7.90;99.90
29687;DHT22;16599;47.078;15.536;2024-03-22T01:10:51;7.80;99.90
29687;DHT22;16599;47.078;15.536;2024-03-22T01:13:17;7.80;99.90
29687;DHT22;16599;47.078;15.536;2024-03-22T01:15:42;7.90;99.90
29687;DHT22;16599;47.078;15.536;2024-03-22T01:18:08;7.90;99.90
29687;DHT22;16599;47.078;15.536;2024-03-22T01:20:34;7.90;99.90
29687;DHT22;16599;47.078;15.536;2024-03-22T01:23:00;7.90;99.90
29687;DHT22;16599;47.078;15.536;2024-03-22T01:25:27;8.00;99.90
29687;DHT22;16599;47.078;15.536;2024-03-22T01:27:52;8.00;99.90
29687;DHT22;16599;47.078;15.536;2024-03-22T01:30:18;8.00;99.90
29687;DHT22;16599;47.078;15.536;2024-03-22T01:32:44;8.00;99.90
29687;DHT22;16599;47.078;15.536;2024-03-22T01:35:10;8.00;99.90
29687;DHT22;16599;47.078;15.536;2024-03-22T01:37:35;7.80;99.90
29687;DHT22;16599;47.078;15.536;2024-03-22T01:40:02;7.70;99.90
29687;DHT22;16599;47.078;15.536;2024-03-22T01:42:28;7.70;99.90
29687;DHT22;16599;47.078;15.536;2024-03-22T01:44:54;7.80;99.90
29687;DHT22;16599;47.078;15.536;2024-03-22T01:47:19;7.60;99.90
29687;DHT22;16599;47.078;15.536;2024-03-22T01:49:45;7.70;99.90
29687;DHT22;16599;47.078;15.536;2024-03-22T01:52:11;7.70;99.90
29687;DHT22;16599;47.078;15.536;2024-03-22T01:54:37;7.70;99.90
29687;DHT22;16599;47.078;15.536;2024-03-22T01:57:03;7.70;99.90
29687;DHT22;16599;47.078;15.536;2024-03-22T01:59:29;7.70;99.90
29687;DHT22;16599;47.078;15.536;2024-03-22T02:01:55;7.60;99.90
29687;DHT22;16599;47.078;15.536;2024-03-22T02:04:21;7.70;99.90
29687;DHT22;16599;47.078;15.536;2024-03-22T02:06:47;7.70;99.90
29687;DHT22;16599;47.078;15.536;2024-03-22T02:09:12;7.70;99.90
29687;DHT22;16599;47.078;15.536;2024-03-22T02:11:40;7.70;99.90
29687;DHT22;16599;47.078;15.536;2024-03-22T02:14:06;7.70;99.90
29687;DHT22;16599;47.078;15.536;2024-03-22T02:16:32;7.60;99.90
29687;DHT22;16599;47.078;15.536;2024-03-22T02:18:57;7.60;99.90
29687;DHT22;16599;47.078;15.536;2024-03-22T02:21:23;7.70;99.90
29687;DHT22;16599;47.078;15.536;2024-03-22T02:23:49;7.70;99.90
29687;DHT22;16599;47.078;15.536;2024-03-22T02:26:15;7.60;99.90
29687;DHT22;16599;47.078;15.536;2024-03-22T02:28:40;7.60;99.90
29687;DHT22;16599;47.078;15.536;2024-03-22T02:31:06;7.70;99.90
29687;DHT22;16599;47.078;15.536;2024-03-22T02:33:32;7.70;99.90
29687;DHT22;16599;47.078;15.536;2024-03-22T02:35:58;7.70;99.90
29687;DHT22;16599;47.078;15.536;2024-03-22T02:38:23;7.60;99.90
29687;DHT22;16599;47.078;15.536;2024-03-22T02:40:50;7.60;99.90
29687;DHT22;16599;47.078;15.536;2024-03-22T02:43:16;7.70;99.90
29687;DHT22;16599;47.078;15.536;2024-03-22T02:45:47;7.70;99.90
29687;DHT22;16599;47.078;15.536;2024-03-22T02:48:12;7.80;99.90
29687;DHT22;16599;47.078;15.536;2024-03-22T02:50:38;7.50;99.90
29687;DHT22;16599;47.078;15.536;2024-03-22T02:53:04;7.60;99.90
29687;DHT22;16599;47.078;15.536;2024-03-22T02:55:30;7.70;99.90
29687;DHT22;16599;47.078;15.536;2024-03-22T02:57:56;7.60;99.90
29687;DHT22;16599;47.078;15.536;2024-03-22T03:00:22;7.60;99.90
29687;DHT22;16599;47.078;15.536;2024-03-22T03:02:48;7.80;99.90
29687;DHT22;16599;47.078;15.536;2024-03-22T03:05:14;7.80;99.90
29687;DHT22;16599;47.078;15.536;2024-03-22T03:07:40;8.20;99.90
29687;DHT22;16599;47.078;15.536;2024-03-22T03:10:06;8.30;99.90
29687;DHT22;16599;47.078;15.536;2024-03-22T03:12:32;8.00;99.90
29687;DHT22;16599;47.078;15.536;2024-03-22T03:14:58;8.10;99.90
29687;DHT22;16599;47.078;15.536;2024-03-22T03:17:24;8.10;99.90
29687;DHT22;16599;47.078;15.536;2024-03-22T03:19:49;8.00;99.90
29687;DHT22;16599;47.078;15.536;2024-03-22T03:22:15;8.10;99.90
29687;DHT22;16599;47.078;15.536;2024-03-22T03:24:41;8.00;99.90
29687;DHT22;16599;47.078;15.536;2024-03-22T03:27:07;7.90;99.90
29687;DHT22;16599;47.078;15.536;2024-03-22T03:29:32;7.80;99.90
29687;DHT22;16599;47.078;15.536;2024-03-22T03:31:58;7.90;99.90
29687;DHT22;16599;47.078;15.536;2024-03-22T03:34:26;7.90;99.90
29687;DHT22;16599;47.078;15.536;2024-03-22T03:36:52;7.60;99.90
29687;DHT22;16599;47.078;15.536;2024-03-22T03:39:17;7.90;99.90
29687;DHT22;16599;47.078;15.536;2024-03-22T03:41:43;8.90;97.30
29687;DHT22;16599;47.078;15.536;2024-03-22T03:44:09;8.70;98.40
29687;DHT22;16599;47.078;15.536;2024-03-22T03:46:35;8.60;97.90
29687;DHT22;16599;47.078;15.536;2024-03-22T03:49:00;8.60;97.90
29687;DHT22;16599;47.078;15.536;2024-03-22T03:51:26;8.60;96.90
29687;DHT22;16599;47.078;15.536;2024-03-22T03:53:52;8.70;96.50
29687;DHT22;16599;47.078;15.536;2024-03-22T03:56:18;8.80;96.00
29687;DHT22;16599;47.078;15.536;2024-03-22T03:58:45;8.70;95.70
29687;DHT22;16599;47.078;15.536;2024-03-22T04:01:11;8.50;96.00
29687;DHT22;16599;47.078;15.536;2024-03-22T04:03:37;8.50;96.10
29687;DHT22;16599;47.078;15.536;2024-03-22T04:06:02;8.50;96.70
29687;DHT22;16599;47.078;15.536;2024-03-22T04:08:28;8.30;97.80
29687;DHT22;16599;47.078;15.536;2024-03-22T04:10:56;8.20;97.90
29687;DHT22;16599;47.078;15.536;2024-03-22T04:13:25;8.10;98.30
29687;DHT22;16599;47.078;15.536;2024-03-22T04:15:52;8.00;99.20
29687;DHT22;16599;47.078;15.536;2024-03-22T04:18:18;7.90;99.50
29687;DHT22;16599;47.078;15.536;2024-03-22T04:20:52;7.80;99.70
29687;DHT22;16599;47.078;15.536;2024-03-22T04:23:18;7.90;99.20
29687;DHT22;16599;47.078;15.536;2024-03-22T04:25:51;7.90;98.70
29687;DHT22;16599;47.078;15.536;2024-03-22T04:28:17;8.10;97.40
29687;DHT22;16599;47.078;15.536;2024-03-22T04:30:43;8.20;97.50
29687;DHT22;16599;47.078;15.536;2024-03-22T04:33:08;8.10;98.20
29687;DHT22;16599;47.078;15.536;2024-03-22T04:35:34;8.20;97.00
29687;DHT22;16599;47.078;15.536;2024-03-22T04:38:00;8.30;95.90
29687;DHT22;16599;47.078;15.536;2024-03-22T04:40:25;8.00;97.40
29687;DHT22;16599;47.078;15.536;2024-03-22T04:42:52;7.80;98.30
29687;DHT22;16599;47.078;15.536;2024-03-22T04:45:18;7.50;99.70
29687;DHT22;16599;47.078;15.536;2024-03-22T04:47:43;7.40;99.90
29687;DHT22;16599;47.078;15.536;2024-03-22T04:50:09;7.50;99.90
29687;DHT22;16599;47.078;15.536;2024-03-22T04:52:35;7.30;99.90
29687;DHT22;16599;47.078;15.536;2024-03-22T04:55:01;7.10;99.90
29687;DHT22;16599;47.078;15.536;2024-03-22T04:57:27;6.80;99.90
29687;DHT22;16599;47.078;15.536;2024-03-22T04:59:53;6.80;99.90
29687;DHT22;16599;47.078;15.536;2024-03-22T05:02:19;6.60;99.90
29687;DHT22;16599;47.078;15.536;2024-03-22T05:04:45;6.70;99.90
29687;DHT22;16599;47.078;15.536;2024-03-22T05:07:10;6.60;99.90
29687;DHT22;16599;47.078;15.536;2024-03-22T05:09:36;6.70;99.90
29687;DHT22;16599;47.078;15.536;2024-03-22T05:12:02;6.40;99.90
29687;DHT22;16599;47.078;15.536;2024-03-22T05:14:28;6.30;99.90
29687;DHT22;16599;47.078;15.536;2024-03-22T05:16:53;6.50;99.90
29687;DHT22;16599;47.078;15.536;2024-03-22T05:19:19;6.60;99.90
29687;DHT22;16599;47.078;15.536;2024-03-22T05:21:45;6.30;99.90
29687;DHT22;16599;47.078;15.536;2024-03-22T05:24:11;6.30;99.90
29687;DHT22;16599;47.078;15.536;2024-03-22T05:26:36;6.30;99.90
29687;DHT22;16599;47.078;15.536;2024-03-22T05:29:02;6.30;99.90
29687;DHT22;16599;47.078;15.536;2024-03-22T05:31:28;6.30;99.90
29687;DHT22;16599;47.078;15.536;2024-03-22T05:33:54;6.30;99.90
29687;DHT22;16599;47.078;15.536;2024-03-22T05:36:20;6.40;99.90
29687;DHT22;16599;47.078;15.536;2024-03-22T05:38:46;6.30;99.90
29687;DHT22;16599;47.078;15.536;2024-03-22T05:41:11;6.30;99.90
29687;DHT22;16599;47.078;15.536;2024-03-22T05:43:37;6.30;99.90
29687;DHT22;16599;47.078;15.536;2024-03-22T05:46:03;6.30;99.90
29687;DHT22;16599;47.078;15.536;2024-03-22T05:48:29;6.30;99.90
29687;DHT22;16599;47.078;15.536;2024-03-22T05:50:55;5.90;99.90
29687;DHT22;16599;47.078;15.536;2024-03-22T05:53:21;6.00;99.90
29687;DHT22;16599;47.078;15.536;2024-03-22T05:55:46;6.10;99.90
29687;DHT22;16599;47.078;15.536;2024-03-22T05:58:12;6.20;99.90
29687;DHT22;16599;47.078;15.536;2024-03-22T06:00:38;6.30;99.90
29687;DHT22;16599;47.078;15.536;2024-03-22T06:03:04;6.50;99.90
29687;DHT22;16599;47.078;15.536;2024-03-22T06:05:30;6.50;99.90
29687;DHT22;16599;47.078;15.536;2024-03-22T06:07:56;6.60;99.90
29687;DHT22;16599;47.078;15.536;2024-03-22T06:10:22;6.60;99.90
29687;DHT22;16599;47.078;15.536;2024-03-22T06:12:47;6.70;99.90
29687;DHT22;16599;47.078;15.536;2024-03-22T06:15:13;6.80;99.90
29687;DHT22;16599;47.078;15.536;2024-03-22T06:17:40;6.90;99.90
29687;DHT22;16599;47.078;15.536;2024-03-22T06:20:07;7.00;99.90
29687;DHT22;16599;47.078;15.536;2024-03-22T06:22:35;7.10;99.90
29687;DHT22;16599;47.078;15.536;2024-03-22T06:25:01;7.20;99.90
29687;DHT22;16599;47.078;15.536;2024-03-22T06:27:27;7.10;99.90
29687;DHT22;16599;47.078;15.536;2024-03-22T06:29:53;7.30;99.90
29687;DHT22;16599;47.078;15.536;2024-03-22T06:32:19;7.50;99.90
29687;DHT22;16599;47.078;15.536;2024-03-22T06:34:44;7.60;99.90
29687;DHT22;16599;47.078;15.536;2024-03-22T06:37:10;7.70;99.90
29687;DHT22;16599;47.078;15.536;2024-03-22T06:39:36;7.80;99.90
29687;DHT22;16599;47.078;15.536;2024-03-22T06:42:02;7.90;99.90
29687;DHT22;16599;47.078;15.536;2024-03-22T06:44:28;8.00;99.90
29687;DHT22;16599;47.078;15.536;2024-03-22T06:46:54;8.30;99.90
29687;DHT22;16599;47.078;15.536;2024-03-22T06:49:19;8.40;99.90
29687;DHT22;16599;47.078;15.536;2024-03-22T06:51:45;8.60;99.30
29687;DHT22;16599;47.078;15.536;2024-03-22T06:54:11;8.60;98.90
29687;DHT22;16599;47.078;15.536;2024-03-22T06:56:37;8.80;99.50
29687;DHT22;16599;47.078;15.536;2024-03-22T06:59:02;9.10;98.30
29687;DHT22;16599;47.078;15.536;2024-03-22T07:01:28;9.40;99.90
29687;DHT22;16599;47.078;15.536;2024-03-22T07:03:54;9.40;98.10
29687;DHT22;16599;47.078;15.536;2024-03-22T07:06:20;9.50;97.70
29687;DHT22;16599;47.078;15.536;2024-03-22T07:08:46;9.50;96.00
29687;DHT22;16599;47.078;15.536;2024-03-22T07:11:12;9.90;96.60
29687;DHT22;16599;47.078;15.536;2024-03-22T07:13:37;10.10;96.10
29687;DHT22;16599;47.078;15.536;2024-03-22T07:16:03;10.30;94.40
29687;DHT22;16599;47.078;15.536;2024-03-22T07:18:29;10.40;94.10
29687;DHT22;16599;47.078;15.536;2024-03-22T07:20:55;10.50;93.50
29687;DHT22;16599;47.078;15.536;2024-03-22T07:23:21;10.60;92.80
29687;DHT22;16599;47.078;15.536;2024-03-22T07:25:47;10.90;92.30
29687;DHT22;16599;47.078;15.536;2024-03-22T07:28:14;11.00;92.50
29687;DHT22;16599;47.078;15.536;2024-03-22T07:30:41;11.30;92.30
29687;DHT22;16599;47.078;15.536;2024-03-22T07:33:07;11.90;90.50
29687;DHT22;16599;47.078;15.536;2024-03-22T07:35:34;12.10;90.00
29687;DHT22;16599;47.078;15.536;2024-03-22T07:38:00;12.30;88.10
29687;DHT22;16599;47.078;15.536;2024-03-22T07:40:26;12.30;88.50
29687;DHT22;16599;47.078;15.536;2024-03-22T07:42:52;12.40;89.30
29687;DHT22;16599;47.078;15.536;2024-03-22T07:45:18;12.50;86.10
29687;DHT22;16599;47.078;15.536;2024-03-22T07:47:43;12.60;86.60
29687;DHT22;16599;47.078;15.536;2024-03-22T07:50:09;12.70;85.40
29687;DHT22;16599;47.078;15.536;2024-03-22T07:52:35;12.70;83.60
29687;DHT22;16599;47.078;15.536;2024-03-22T07:55:03;12.80;82.40
29687;DHT22;16599;47.078;15.536;2024-03-22T07:57:49;13.00;82.70
29687;DHT22;16599;47.078;15.536;2024-03-22T08:00:15;13.20;81.80
29687;DHT22;16599;47.078;15.536;2024-03-22T08:02:41;13.10;83.80
29687;DHT22;16599;47.078;15.536;2024-03-22T08:05:07;13.20;80.00
29687;DHT22;16599;47.078;15.536;2024-03-22T08:07:33;13.30;80.70
29687;DHT22;16599;47.078;15.536;2024-03-22T08:10:06;13.50;79.90
29687;DHT22;16599;47.078;15.536;2024-03-22T08:12:35;13.50;79.10
29687;DHT22;16599;47.078;15.536;2024-03-22T08:17:34;13.90;79.10
29687;DHT22;16599;47.078;15.536;2024-03-22T08:20:07;13.90;76.80
29687;DHT22;16599;47.078;15.536;2024-03-22T08:22:36;13.90;77.00
29687;DHT22;16599;47.078;15.536;2024-03-22T08:25:02;13.80;77.10
29687;DHT22;16599;47.078;15.536;2024-03-22T08:27:29;14.00;74.00
29687;DHT22;16599;47.078;15.536;2024-03-22T08:29:55;14.20;74.50
29687;DHT22;16599;47.078;15.536;2024-03-22T08:32:21;14.20;72.00
29687;DHT22;16599;47.078;15.536;2024-03-22T08:34:46;14.30;73.70
29687;DHT22;16599;47.078;15.536;2024-03-22T08:37:12;14.30;71.70
29687;DHT22;16599;47.078;15.536;2024-03-22T08:39:38;14.30;71.60
29687;DHT22;16599;47.078;15.536;2024-03-22T08:42:04;14.50;70.90
29687;DHT22;16599;47.078;15.536;2024-03-22T08:44:31;14.50;69.10
29687;DHT22;16599;47.078;15.536;2024-03-22T08:46:57;14.60;67.30
29687;DHT22;16599;47.078;15.536;2024-03-22T08:49:23;14.70;69.10
29687;DHT22;16599;47.078;15.536;2024-03-22T08:51:49;14.70;67.10
29687;DHT22;16599;47.078;15.536;2024-03-22T08:54:15;14.70;67.00
29687;DHT22;16599;47.078;15.536;2024-03-22T08:56:41;14.80;71.20
29687;DHT22;16599;47.078;15.536;2024-03-22T08:59:07;14.80;71.00
29687;DHT22;16599;47.078;15.536;2024-03-22T09:01:32;14.90;70.20
29687;DHT22;16599;47.078;15.536;2024-03-22T09:03:58;15.00;70.70
29687;DHT22;16599;47.078;15.536;2024-03-22T09:06:24;15.10;68.50
29687;DHT22;16599;47.078;15.536;2024-03-22T09:08:50;15.10;68.60
29687;DHT22;16599;47.078;15.536;2024-03-22T09:11:15;15.20;67.30
29687;DHT22;16599;47.078;15.536;2024-03-22T09:13:41;15.10;65.90
29687;DHT22;16599;47.078;15.536;2024-03-22T09:16:07;15.40;66.00
29687;DHT22;16599;47.078;15.536;2024-03-22T09:18:33;15.60;67.30
29687;DHT22;16599;47.078;15.536;2024-03-22T09:20:58;15.70;64.30
29687;DHT22;16599;47.078;15.536;2024-03-22T09:23:24;15.70;61.10
29687;DHT22;16599;47.078;15.536;2024-03-22T09:25:50;15.80;59.80
29687;DHT22;16599;47.078;15.536;2024-03-22T09:28:16;15.80;61.50
29687;DHT22;16599;47.078;15.536;2024-03-22T09:30:42;15.80;60.30
29687;DHT22;16599;47.078;15.536;2024-03-22T09:33:09;15.70;63.70
29687;DHT22;16599;47.078;15.536;2024-03-22T09:35:34;15.70;64.80
29687;DHT22;16599;47.078;15.536;2024-03-22T09:38:01;15.90;65.60
29687;DHT22;16599;47.078;15.536;2024-03-22T09:40:28;16.10;63.90
29687;DHT22;16599;47.078;15.536;2024-03-22T09:42:54;16.20;65.10
29687;DHT22;16599;47.078;15.536;2024-03-22T09:45:23;16.60;61.30
29687;DHT22;16599;47.078;15.536;2024-03-22T09:47:49;16.60;57.30
29687;DHT22;16599;47.078;15.536;2024-03-22T09:50:15;16.80;59.50
29687;DHT22;16599;47.078;15.536;2024-03-22T09:52:41;17.00;59.30
29687;DHT22;16599;47.078;15.536;2024-03-22T09:55:07;16.80;57.50
29687;DHT22;16599;47.078;15.536;2024-03-22T09:57:40;16.70;56.80
29687;DHT22;16599;47.078;15.536;2024-03-22T10:00:06;16.50;56.20
29687;DHT22;16599;47.078;15.536;2024-03-22T10:02:33;16.60;56.10
29687;DHT22;16599;47.078;15.536;2024-03-22T10:04:59;16.10;54.90
29687;DHT22;16599;47.078;15.536;2024-03-22T10:07:25;16.70;57.10
29687;DHT22;16599;47.078;15.536;2024-03-22T10:09:57;16.60;59.60
29687;DHT22;16599;47.078;15.536;2024-03-22T10:12:23;16.90;58.20
29687;DHT22;16599;47.078;15.536;2024-03-22T10:14:54;16.90;57.70
29687;DHT22;16599;47.078;15.536;2024-03-22T10:17:19;17.10;59.20
29687;DHT22;16599;47.078;15.536;2024-03-22T10:19:45;17.10;57.30
29687;DHT22;16599;47.078;15.536;2024-03-22T10:22:15;17.10;58.60
29687;DHT22;16599;47.078;15.536;2024-03-22T10:24:41;17.10;57.20
29687;DHT22;16599;47.078;15.536;2024-03-22T10:27:08;17.20;53.80
29687;DHT22;16599;47.078;15.536;2024-03-22T10:29:35;16.70;52.90
29687;DHT22;16599;47.078;15.536;2024-03-22T10:32:01;16.30;53.90
29687;DHT22;16599;47.078;15.536;2024-03-22T10:34:27;16.70;57.70
29687;DHT22;16599;47.078;15.536;2024-03-22T10:36:55;17.40;56.00
29687;DHT22;16599;47.078;15.536;2024-03-22T10:39:21;17.60;56.00
29687;DHT22;16599;47.078;15.536;2024-03-22T10:41:48;17.80;54.60
29687;DHT22;16599;47.078;15.536;2024-03-22T10:44:14;17.00;52.10
29687;DHT22;16599;47.078;15.536;2024-03-22T10:46:44;16.60;54.30
29687;DHT22;16599;47.078;15.536;2024-03-22T10:49:12;16.70;54.00
29687;DHT22;16599;47.078;15.536;2024-03-22T10:51:40;16.80;54.80
29687;DHT22;16599;47.078;15.536;2024-03-22T10:54:08;16.90;55.80
29687;DHT22;16599;47.078;15.536;2024-03-22T10:56:34;17.50;56.60
29687;DHT22;16599;47.078;15.536;2024-03-22T10:59:03;17.60;54.30
29687;DHT22;16599;47.078;15.536;2024-03-22T11:01:29;17.60;53.30
29687;DHT22;16599;47.078;15.536;2024-03-22T11:04:08;17.90;53.00
29687;DHT22;16599;47.078;15.536;2024-03-22T11:06:36;18.00;54.20
29687;DHT22;16599;47.078;15.536;2024-03-22T11:09:02;18.00;51.90
29687;DHT22;16599;47.078;15.536;2024-03-22T11:11:30;17.10;52.80
29687;DHT22;16599;47.078;15.536;2024-03-22T11:13:57;17.80;53.90
29687;DHT22;16599;47.078;15.536;2024-03-22T11:16:23;18.20;52.80
29687;DHT22;16599;47.078;15.536;2024-03-22T11:18:49;18.40;52.40
29687;DHT22;16599;47.078;15.536;2024-03-22T11:21:15;18.10;50.20
29687;DHT22;16599;47.078;15.536;2024-03-22T11:23:41;18.30;51.10
29687;DHT22;16599;47.078;15.536;2024-03-22T11:26:10;17.80;49.90
29687;DHT22;16599;47.078;15.536;2024-03-22T11:28:36;17.90;51.90
29687;DHT22;16599;47.078;15.536;2024-03-22T11:31:01;18.30;53.50
29687;DHT22;16599;47.078;15.536;2024-03-22T11:33:27;18.40;53.40
29687;DHT22;16599;47.078;15.536;2024-03-22T11:35:57;18.50;53.40
29687;DHT22;16599;47.078;15.536;2024-03-22T11:38:23;18.40;52.30
29687;DHT22;16599;47.078;15.536;2024-03-22T11:40:49;18.50;52.30
29687;DHT22;16599;47.078;15.536;2024-03-22T11:43:15;18.30;54.00
29687;DHT22;16599;47.078;15.536;2024-03-22T11:45:42;18.40;52.80
29687;DHT22;16599;47.078;15.536;2024-03-22T11:48:08;18.40;51.70
29687;DHT22;16599;47.078;15.536;2024-03-22T11:50:36;18.40;51.50
29687;DHT22;16599;47.078;15.536;2024-03-22T11:53:01;18.30;53.60
29687;DHT22;16599;47.078;15.536;2024-03-22T11:55:29;17.60;51.40
29687;DHT22;16599;47.078;15.536;2024-03-22T11:57:56;17.50;56.30
29687;DHT22;16599;47.078;15.536;2024-03-22T12:00:22;18.00;53.30
29687;DHT22;16599;47.078;15.536;2024-03-22T12:02:50;18.20;52.90
29687;DHT22;16599;47.078;15.536;2024-03-22T12:05:22;18.00;52.10
29687;DHT22;16599;47.078;15.536;2024-03-22T12:07:50;18.00;53.30
29687;DHT22;16599;47.078;15.536;2024-03-22T12:10:16;17.80;52.10
29687;DHT22;16599;47.078;15.536;2024-03-22T12:12:42;18.10;55.00
29687;DHT22;16599;47.078;15.536;2024-03-22T12:15:08;18.40;54.60
29687;DHT22;16599;47.078;15.536;2024-03-22T12:17:34;18.40;51.00
29687;DHT22;16599;47.078;15.536;2024-03-22T12:20:01;18.40;49.90
29687;DHT22;16599;47.078;15.536;2024-03-22T12:22:29;18.30;50.50
29687;DHT22;16599;47.078;15.536;2024-03-22T12:24:55;18.30;50.90
29687;DHT22;16599;47.078;15.536;2024-03-22T12:27:21;18.30;50.10
29687;DHT22;16599;47.078;15.536;2024-03-22T12:29:47;18.40;52.40
29687;DHT22;16599;47.078;15.536;2024-03-22T12:32:12;18.40;49.70
29687;DHT22;16599;47.078;15.536;2024-03-22T12:34:38;18.40;50.10
29687;DHT22;16599;47.078;15.536;2024-03-22T12:37:04;18.50;49.20
29687;DHT22;16599;47.078;15.536;2024-03-22T12:39:30;18.60;49.50
29687;DHT22;16599;47.078;15.536;2024-03-22T12:41:58;18.60;48.60
29687;DHT22;16599;47.078;15.536;2024-03-22T12:44:24;18.70;50.20
29687;DHT22;16599;47.078;15.536;2024-03-22T12:46:50;18.60;49.00
29687;DHT22;16599;47.078;15.536;2024-03-22T12:49:16;18.50;49.10
29687;DHT22;16599;47.078;15.536;2024-03-22T12:51:42;18.40;48.30
29687;DHT22;16599;47.078;15.536;2024-03-22T12:54:08;18.20;47.50
29687;DHT22;16599;47.078;15.536;2024-03-22T12:56:34;17.80;49.10
29687;DHT22;16599;47.078;15.536;2024-03-22T12:59:00;18.20;54.00
29687;DHT22;16599;47.078;15.536;2024-03-22T13:01:26;18.60;50.20
29687;DHT22;16599;47.078;15.536;2024-03-22T13:03:52;18.50;52.20
29687;DHT22;16599;47.078;15.536;2024-03-22T13:06:17;18.90;51.10
29687;DHT22;16599;47.078;15.536;2024-03-22T13:08:43;19.10;48.90
29687;DHT22;16599;47.078;15.536;2024-03-22T13:11:09;19.40;48.90
29687;DHT22;16599;47.078;15.536;2024-03-22T13:13:35;19.80;48.30
29687;DHT22;16599;47.078;15.536;2024-03-22T13:16:01;19.90;46.60
29687;DHT22;16599;47.078;15.536;2024-03-22T13:18:28;19.80;48.50
29687;DHT22;16599;47.078;15.536;2024-03-22T13:20:54;19.40;47.80
29687;DHT22;16599;47.078;15.536;2024-03-22T13:23:20;19.80;47.20
29687;DHT22;16599;47.078;15.536;2024-03-22T13:25:46;19.90;48.10
29687;DHT22;16599;47.078;15.536;2024-03-22T13:28:11;19.60;47.40
29687;DHT22;16599;47.078;15.536;2024-03-22T13:30:37;19.10;47.10
29687;DHT22;16599;47.078;15.536;2024-03-22T13:33:03;19.10;48.10
29687;DHT22;16599;47.078;15.536;2024-03-22T13:35:29;18.80;48.80
29687;DHT22;16599;47.078;15.536;2024-03-22T13:37:55;18.40;51.70
29687;DHT22;16599;47.078;15.536;2024-03-22T13:40:21;18.40;48.30
29687;DHT22;16599;47.078;15.536;2024-03-22T13:42:47;18.20;49.60
29687;DHT22;16599;47.078;15.536;2024-03-22T13:45:13;18.20;49.60
29687;DHT22;16599;47.078;15.536;2024-03-22T13:47:38;18.20;49.80
29687;DHT22;16599;47.078;15.536;2024-03-22T13:50:09;18.30;49.50
29687;DHT22;16599;47.078;15.536;2024-03-22T13:52:35;17.90;48.70
29687;DHT22;16599;47.078;15.536;2024-03-22T13:55:01;18.00;49.70
29687;DHT22;16599;47.078;15.536;2024-03-22T13:57:27;18.10;52.30
29687;DHT22;16599;47.078;15.536;2024-03-22T13:59:52;18.30;49.00
29687;DHT22;16599;47.078;15.536;2024-03-22T14:02:19;18.00;48.50
29687;DHT22;16599;47.078;15.536;2024-03-22T14:04:45;18.20;50.30
29687;DHT22;16599;47.078;15.536;2024-03-22T14:07:11;18.70;49.00
29687;DHT22;16599;47.078;15.536;2024-03-22T14:09:37;19.20;47.90
29687;DHT22;16599;47.078;15.536;2024-03-22T14:12:02;18.80;47.80
29687;DHT22;16599;47.078;15.536;2024-03-22T14:14:28;19.10;49.70
29687;DHT22;16599;47.078;15.536;2024-03-22T14:16:54;19.50;48.50
29687;DHT22;16599;47.078;15.536;2024-03-22T14:19:20;19.40;45.30
29687;DHT22;16599;47.078;15.536;2024-03-22T14:21:46;19.30;46.40
29687;DHT22;16599;47.078;15.536;2024-03-22T14:24:12;19.30;46.10
29687;DHT22;16599;47.078;15.536;2024-03-22T14:26:38;19.50;45.90
29687;DHT22;16599;47.078;15.536;2024-03-22T14:29:10;19.30;44.60
29687;DHT22;16599;47.078;15.536;2024-03-22T14:31:36;19.00;46.70
29687;DHT22;16599;47.078;15.536;2024-03-22T14:34:02;18.70;46.00
29687;DHT22;16599;47.078;15.536;2024-03-22T14:36:28;18.40;51.80
29687;DHT22;16599;47.078;15.536;2024-03-22T14:38:54;18.00;52.20
29687;DHT22;16599;47.078;15.536;2024-03-22T14:41:19;18.10;50.80
29687;DHT22;16599;47.078;15.536;2024-03-22T14:43:45;18.40;48.60
29687;DHT22;16599;47.078;15.536;2024-03-22T14:46:11;18.40;48.70
29687;DHT22;16599;47.078;15.536;2024-03-22T14:48:37;18.30;48.90
29687;DHT22;16599;47.078;15.536;2024-03-22T14:51:03;18.30;49.20
29687;DHT22;16599;47.078;15.536;2024-03-22T14:53:28;18.10;49.50
29687;DHT22;16599;47.078;15.536;2024-03-22T14:55:56;17.70;49.80
29687;DHT22;16599;47.078;15.536;2024-03-22T14:58:29;17.80;49.50
29687;DHT22;16599;47.078;15.536;2024-03-22T15:00:56;18.00;49.90
29687;DHT22;16599;47.078;15.536;2024-03-22T15:03:22;18.00;50.80
29687;DHT22;16599;47.078;15.536;2024-03-22T15:05:51;17.90;49.10
29687;DHT22;16599;47.078;15.536;2024-03-22T15:08:19;17.80;49.40
29687;DHT22;16599;47.078;15.536;2024-03-22T15:10:45;17.70;50.40
29687;DHT22;16599;47.078;15.536;2024-03-22T15:13:11;17.60;52.20
29687;DHT22;16599;47.078;15.536;2024-03-22T15:15:37;17.40;53.70
29687;DHT22;16599;47.078;15.536;2024-03-22T15:18:03;17.60;51.70